Colombo Express — DIHC — position and weather

sailwx.info

Track history (hours):
 
Tides and Currents Weather Stations Pressure Air Temp Water Temp Dewpoint Dewpoint Depression Visibility Wind Speed Wind Dir Waves Ship Positions

Colombo Express

Last reported at 2014-Oct-18 05:30 UTC. Time now 2014-Oct-23 04:44 UTC.
Position N 24°33' E 119°21'.

Length 335.5 m; beam 42.8 m; draft 14.6 m.

Type: Ship. MMSI: 211433000.

Date/timePositionNaut miles runAvg speedWind from/ knotsBaromVisibWave heightAir tempDewpointWater temp
2014-Oct-18 05:30N 24°33' E 119°21'5216.5
2014-Oct-18 02:20N 24°03' E 118°34'1316.1
2014-Oct-18 01:33N 23°56' E 118°23'1615.7
2014-Oct-18 00:33N 23°47' E 118°09'1716.7
2014-Oct-17 23:33N 23°37' E 117°54'1716.8
2014-Oct-17 22:31N 23°26' E 117°39'3617.1
2014-Oct-17 20:25N 23°06' E 117°07'1416.6
2014-Oct-17 19:33N 22°60' E 116°53'1717.1
2014-Oct-17 18:33N 22°52' E 116°36'1221.7
2014-Oct-17 18:00N 22°48' E 116°24'13114.7 050 / 241016.210.8 1.524.018.825.0
2014-Oct-17 09:04N 22°18' E 114°06'2 0.1
2014-Oct-16 14:17N 22°19' E 114°07'  
2014-Oct-14 06:00N 06°36' E 107°36'38018.6 090 / 161011.010.8 1.029.524.028.0
2014-Oct-13 09:31N 01°15' E 104°12'1717.9
2014-Oct-13 08:33N 01°13' E 103°55'5 5.3
2014-Oct-13 07:33N 01°16' E 103°51'0 0.0
2014-Oct-13 06:33N 01°16' E 103°51'0 0.0
2014-Oct-13 05:33N 01°16' E 103°51'0 0.0
2014-Oct-13 04:31N 01°16' E 103°51'0 0.0
2014-Oct-13 03:31N 01°16' E 103°51'0 0.0
2014-Oct-13 02:31N 01°16' E 103°51'0 0.0
2014-Oct-13 01:28N 01°16' E 103°51'0 0.0
2014-Oct-13 00:31N 01°16' E 103°51'0 0.0
2014-Oct-12 23:31N 01°16' E 103°51'0 0.0
2014-Oct-12 22:33N 01°16' E 103°51'0 0.0
2014-Oct-12 21:33N 01°16' E 103°51'0 0.0
2014-Oct-12 20:30N 01°16' E 103°51'0 0.0
2014-Oct-12 19:33N 01°16' E 103°51'0 0.0
2014-Oct-12 18:33N 01°16' E 103°51'0 0.0
2014-Oct-12 17:33N 01°16' E 103°51'0 0.0
2014-Oct-12 16:33N 01°16' E 103°51'0 0.0
2014-Oct-12 15:33N 01°16' E 103°51'0 0.0
2014-Oct-12 14:33N 01°16' E 103°51'0 0.0
2014-Oct-12 13:33N 01°16' E 103°51'0 0.0
2014-Oct-12 12:30N 01°16' E 103°51'0 0.0
2014-Oct-12 11:34N 01°16' E 103°51'0 0.0
2014-Oct-12 10:31N 01°16' E 103°51'0 0.0
2014-Oct-12 09:34N 01°16' E 103°51'0 0.0
2014-Oct-12 08:30N 01°16' E 103°51'0 0.0
2014-Oct-12 07:28N 01°16' E 103°51'0 0.0
2014-Oct-12 06:28N 01°16' E 103°51'0 0.0
2014-Oct-12 05:33N 01°16' E 103°51'3 3.4
2014-Oct-12 04:33N 01°13' E 103°53'6 6.0
2014-Oct-12 03:34N 01°10' E 103°48'8 8.1
2014-Oct-12 02:33N 01°05' E 103°42'8 7.7
2014-Oct-12 01:31N 01°06' E 103°34'  
Track history (hours):
 
Tides and Currents Weather Stations Pressure Air Temp Water Temp Dewpoint Dewpoint Depression Visibility Wind Speed Wind Dir Waves Ship Positions

Colombo Express

Last reported at 2014-Oct-18 05:30 UTC. Time now 2014-Oct-23 04:44 UTC.
Position N 24°33' E 119°21'.

Length 335.5 m; beam 42.8 m; draft 14.6 m.

Type: Ship. MMSI: 211433000.

Date/timePositionNaut miles runAvg speedWind from/ knotsBaromVisibWave heightAir tempDewpointWater temp
2014-Oct-18 05:30N 24°33' E 119°21'5216.5
2014-Oct-18 02:20N 24°03' E 118°34'1316.1
2014-Oct-18 01:33N 23°56' E 118°23'1615.7
2014-Oct-18 00:33N 23°47' E 118°09'1716.7
2014-Oct-17 23:33N 23°37' E 117°54'1716.8
2014-Oct-17 22:31N 23°26' E 117°39'3617.1
2014-Oct-17 20:25N 23°06' E 117°07'1416.6
2014-Oct-17 19:33N 22°60' E 116°53'1717.1
2014-Oct-17 18:33N 22°52' E 116°36'1221.7
2014-Oct-17 18:00N 22°48' E 116°24'13114.7 050 / 241016.210.8 1.524.018.825.0
2014-Oct-17 09:04N 22°18' E 114°06'2 0.1
2014-Oct-16 14:17N 22°19' E 114°07'  
2014-Oct-14 06:00N 06°36' E 107°36'38018.6 090 / 161011.010.8 1.029.524.028.0
2014-Oct-13 09:31N 01°15' E 104°12'1717.9
2014-Oct-13 08:33N 01°13' E 103°55'5 5.3
2014-Oct-13 07:33N 01°16' E 103°51'0 0.0
2014-Oct-13 06:33N 01°16' E 103°51'0 0.0
2014-Oct-13 05:33N 01°16' E 103°51'0 0.0
2014-Oct-13 04:31N 01°16' E 103°51'0 0.0
2014-Oct-13 03:31N 01°16' E 103°51'0 0.0
2014-Oct-13 02:31N 01°16' E 103°51'0 0.0
2014-Oct-13 01:28N 01°16' E 103°51'0 0.0
2014-Oct-13 00:31N 01°16' E 103°51'0 0.0
2014-Oct-12 23:31N 01°16' E 103°51'0 0.0
2014-Oct-12 22:33N 01°16' E 103°51'0 0.0
2014-Oct-12 21:33N 01°16' E 103°51'0 0.0
2014-Oct-12 20:30N 01°16' E 103°51'0 0.0
2014-Oct-12 19:33N 01°16' E 103°51'0 0.0
2014-Oct-12 18:33N 01°16' E 103°51'0 0.0
2014-Oct-12 17:33N 01°16' E 103°51'0 0.0
2014-Oct-12 16:33N 01°16' E 103°51'0 0.0
2014-Oct-12 15:33N 01°16' E 103°51'0 0.0
2014-Oct-12 14:33N 01°16' E 103°51'0 0.0
2014-Oct-12 13:33N 01°16' E 103°51'0 0.0
2014-Oct-12 12:30N 01°16' E 103°51'0 0.0
2014-Oct-12 11:34N 01°16' E 103°51'0 0.0
2014-Oct-12 10:31N 01°16' E 103°51'0 0.0
2014-Oct-12 09:34N 01°16' E 103°51'0 0.0
2014-Oct-12 08:30N 01°16' E 103°51'0 0.0
2014-Oct-12 07:28N 01°16' E 103°51'0 0.0
2014-Oct-12 06:28N 01°16' E 103°51'0 0.0
2014-Oct-12 05:33N 01°16' E 103°51'3 3.4
2014-Oct-12 04:33N 01°13' E 103°53'6 6.0
2014-Oct-12 03:34N 01°10' E 103°48'8 8.1
2014-Oct-12 02:33N 01°05' E 103°42'8 7.7
2014-Oct-12 01:31N 01°06' E 103°34'  

Dump ship's entire track history